No particular awareness of the weather is required.    There are no Weather-warnings


Meteo18 Weather Cam more information Meteo18 Weather Cam


Thunder radar more information blitzortung!


Rain radar more information rain snow radar


Visit our other weather sites:

Template documentation
and downloads

And another site



Weather Underground History page Text

Daily Summary for June 1, 2017 Units:  English    Metric   Both
« Previous Day
Next Day »
Daily Weekly Monthly Yearly Custom
  High: Low: Average:
Temperature: TemperatureC °F 14.1 °F 20.7 °F
Dew Point: DewpointC °F 12.4 °F 15.2 °F
Humidity: Humidity % 49 % 72 %
Wind Speed: WindSpeedKMH mph 0.0 mph 1.6 mph
Wind Gust: WindSpeedGustKMH mph - -
Wind:- - ESE
Pressure: PressurehPa in 1018.5 in -
Precipitation: 0.0 in    
Historical Graphs
 
 
Tabular Data for June 1, 2017
Time Temperature Dew Point Pressure Wind Wind Speed Wind Gust Humidity Rainfall Rate (Hourly)
TemperatureC °F DewpointC °F PressurehPa in Calm     Humidity % HourlyPrecipMM in
00:02 17.3 °F 14.6 °F 1021.9 in NNE 1.6 mph 3.2 mph 84 % 0.0 in
00:07 17.2 °F 14.5 °F 1021.9 in NNE 1.6 mph 3.2 mph 84 % 0.0 in
00:12 17.1 °F 14.4 °F 1021.9 in Calm   3.2 mph 84 % 0.0 in
00:17 17.1 °F 14.4 °F 1021.9 in Calm   3.2 mph 84 % 0.0 in
00:22 17.1 °F 14.4 °F 1021.9 in Calm   3.2 mph 84 % 0.0 in
00:32 17.1 °F 14.4 °F 1021.9 in Calm   3.2 mph 84 % 0.0 in
00:37 17.1 °F 14.4 °F 1021.9 in Calm   3.2 mph 84 % 0.0 in
00:42 17.1 °F 14.2 °F 1021.9 in Calm   3.2 mph 83 % 0.0 in
00:52 17.1 °F 14.2 °F 1021.9 in Calm   1.6 mph 83 % 0.0 in
00:57 17.0 °F 14.1 °F 1021.9 in Calm   1.6 mph 83 % 0.0 in
01:02 16.9 °F 14.0 °F 1021.9 in Calm   1.6 mph 83 % 0.0 in
01:12 16.9 °F 14.0 °F 1021.9 in Calm     83 % 0.0 in
01:17 16.7 °F 13.8 °F 1021.9 in Calm     83 % 0.0 in
01:22 16.7 °F 13.8 °F 1021.9 in Calm   3.2 mph 83 % 0.0 in
01:27 16.6 °F 13.7 °F 1021.9 in Calm   3.2 mph 83 % 0.0 in
01:32 16.6 °F 13.7 °F 1021.9 in Calm   3.2 mph 83 % 0.0 in
01:42 16.4 °F 13.7 °F 1021.9 in NW 1.6 mph 1.6 mph 84 % 0.0 in
01:47 16.3 °F 13.6 °F 1021.9 in Calm   4.8 mph 84 % 0.0 in
01:52 16.3 °F 13.6 °F 1021.9 in Calm   4.8 mph 84 % 0.0 in
01:57 16.3 °F 13.6 °F 1021.9 in Calm   4.8 mph 84 % 0.0 in
02:02 16.2 °F 13.7 °F 1021.9 in Calm   4.8 mph 85 % 0.0 in
02:07 16.2 °F 13.5 °F 1021.9 in Calm   1.6 mph 84 % 0.0 in
02:12 16.0 °F 13.5 °F 1021.9 in Calm   1.6 mph 85 % 0.0 in
02:17 15.9 °F 13.6 °F 1021.9 in Calm     86 % 0.0 in
02:22 15.7 °F 13.5 °F 1021.9 in Calm     87 % 0.0 in
02:32 16.0 °F 13.7 °F 1021.9 in Calm     86 % 0.0 in
02:42 16.1 °F 13.6 °F 1021.6 in Calm     85 % 0.0 in
02:47 16.0 °F 13.5 °F 1021.6 in Calm     85 % 0.0 in
02:52 15.9 °F 13.6 °F 1021.6 in Calm     86 % 0.0 in
02:57 15.6 °F 13.4 °F 1021.6 in Calm     87 % 0.0 in
03:02 15.6 °F 13.4 °F 1021.6 in Calm     87 % 0.0 in
03:12 15.7 °F 13.5 °F 1021.6 in Calm     87 % 0.0 in
03:17 15.6 °F 13.4 °F 1021.6 in Calm     87 % 0.0 in
03:22 15.4 °F 13.2 °F 1021.6 in Calm     87 % 0.0 in
03:32 15.3 °F 13.3 °F 1021.2 in Calm   1.6 mph 88 % 0.0 in
03:37 15.3 °F 13.3 °F 1021.2 in Calm   1.6 mph 88 % 0.0 in
03:42 15.2 °F 13.0 °F 1021.2 in Calm   3.2 mph 87 % 0.0 in
03:52 15.1 °F 13.1 °F 1021.2 in NNE 1.6 mph 3.2 mph 88 % 0.0 in
03:57 14.9 °F 12.9 °F 1021.2 in North 1.6 mph 3.2 mph 88 % 0.0 in
04:02 14.9 °F 12.9 °F 1021.2 in NNE 1.6 mph 4.8 mph 88 % 0.0 in
04:12 14.9 °F 12.9 °F 1021.2 in Calm   4.8 mph 88 % 0.0 in
04:17 14.8 °F 12.8 °F 1021.2 in Calm   4.8 mph 88 % 0.0 in
04:22 14.7 °F 12.9 °F 1021.2 in Calm   4.8 mph 89 % 0.0 in
04:32 14.8 °F 12.8 °F 1020.9 in North 1.6 mph 3.2 mph 88 % 0.0 in
04:37 14.8 °F 12.8 °F 1020.9 in Calm   3.2 mph 88 % 0.0 in
04:42 14.8 °F 12.8 °F 1020.9 in NNE 3.2 mph 3.2 mph 88 % 0.0 in
04:47 14.8 °F 12.8 °F 1020.9 in Calm   3.2 mph 88 % 0.0 in
04:52 14.7 °F 12.7 °F 1020.9 in Calm   3.2 mph 88 % 0.0 in
04:57 14.6 °F 12.6 °F 1020.9 in Calm   3.2 mph 88 % 0.0 in
05:02 14.6 °F 12.8 °F 1020.9 in Calm   3.2 mph 89 % 0.0 in
05:07 14.6 °F 12.8 °F 1020.9 in Calm     89 % 0.0 in
05:12 14.7 °F 12.9 °F 1020.9 in Calm     89 % 0.0 in
05:17 14.5 °F 12.7 °F 1020.5 in WNW 1.6 mph 1.6 mph 89 % 0.0 in
05:22 14.4 °F 12.8 °F 1020.5 in WNW 1.6 mph 1.6 mph 90 % 0.0 in
05:27 14.6 °F 12.8 °F 1020.5 in NW 1.6 mph 1.6 mph 89 % 0.0 in
05:32 14.6 °F 12.8 °F 1020.5 in North 1.6 mph 1.6 mph 89 % 0.0 in
05:42 14.4 °F 12.6 °F 1020.5 in Calm   1.6 mph 89 % 0.0 in
05:47 14.4 °F 12.6 °F 1020.5 in North 1.6 mph 3.2 mph 89 % 0.0 in
05:52 14.3 °F 12.5 °F 1020.5 in Calm   3.2 mph 89 % 0.0 in
05:57 14.3 °F 12.5 °F 1020.9 in Calm   3.2 mph 89 % 0.0 in
06:02 14.2 °F 12.4 °F 1020.9 in Calm   3.2 mph 89 % 0.0 in
06:12 14.1 °F 12.5 °F 1020.9 in North 1.6 mph 3.2 mph 90 % 0.0 in
06:17 14.1 °F 12.5 °F 1020.9 in Calm   3.2 mph 90 % 0.0 in
06:22 14.2 °F 12.6 °F 1020.9 in Calm   3.2 mph 90 % 0.0 in
06:27 14.2 °F 12.6 °F 1020.9 in NNW 1.6 mph 3.2 mph 90 % 0.0 in
06:32 14.3 °F 12.7 °F 1020.9 in North 1.6 mph 1.6 mph 90 % 0.0 in
06:37 14.4 °F 12.8 °F 1020.9 in Calm   1.6 mph 90 % 0.0 in
06:42 14.5 °F 12.7 °F 1020.9 in Calm   3.2 mph 89 % 0.0 in
06:47 14.6 °F 12.8 °F 1020.9 in North 3.2 mph 3.2 mph 89 % 0.0 in
06:52 14.6 °F 12.8 °F 1020.9 in Calm   3.2 mph 89 % 0.0 in
06:57 14.9 °F 13.1 °F 1020.9 in Calm   3.2 mph 89 % 0.0 in
07:02 15.2 °F 13.2 °F 1020.9 in Calm   3.2 mph 88 % 0.0 in
07:07 15.4 °F 13.2 °F 1020.9 in Calm   1.6 mph 87 % 0.0 in
07:12 15.8 °F 13.5 °F 1021.2 in Calm   1.6 mph 86 % 0.0 in
07:17 16.1 °F 13.8 °F 1021.2 in Calm   1.6 mph 86 % 0.0 in
07:22 16.4 °F 13.9 °F 1021.2 in Calm   1.6 mph 85 % 0.0 in
07:27 17.1 °F 14.4 °F 1021.2 in Calm   1.6 mph 84 % 0.0 in
07:32 17.5 °F 14.4 °F 1021.2 in Calm   1.6 mph 82 % 0.0 in
07:37 17.7 °F 14.6 °F 1021.2 in Calm   1.6 mph 82 % 0.0 in
07:42 17.6 °F 14.7 °F 1021.2 in NNE 1.6 mph 1.6 mph 83 % 0.0 in
07:47 17.4 °F 14.7 °F 1021.2 in North 1.6 mph 1.6 mph 84 % 0.0 in
07:52 17.3 °F 14.6 °F 1021.2 in NNE 3.2 mph 3.2 mph 84 % 0.0 in
07:57 17.3 °F 14.6 °F 1021.2 in NNW 1.6 mph 3.2 mph 84 % 0.0 in
08:02 17.2 °F 14.3 °F 1021.2 in Calm   3.2 mph 83 % 0.0 in
08:07 17.3 °F 14.2 °F 1021.2 in North 1.6 mph 4.8 mph 82 % 0.0 in
08:12 17.6 °F 14.5 °F 1021.2 in NNE 1.6 mph 4.8 mph 82 % 0.0 in
08:17 17.8 °F 14.5 °F 1021.6 in NE 3.2 mph 3.2 mph 81 % 0.0 in
08:22 17.9 °F 14.4 °F 1021.6 in ENE 1.6 mph 3.2 mph 80 % 0.0 in
08:27 18.1 °F 14.8 °F 1021.6 in Calm   6.4 mph 81 % 0.0 in
08:32 18.4 °F 14.9 °F 1021.6 in ENE 3.2 mph 6.4 mph 80 % 0.0 in
08:37 18.5 °F 14.8 °F 1021.6 in ENE 1.6 mph 4.8 mph 79 % 0.0 in
08:42 18.6 °F 14.7 °F 1021.2 in Calm   4.8 mph 78 % 0.0 in
08:47 19.1 °F 15.4 °F 1021.6 in Calm   3.2 mph 79 % 0.0 in
08:57 20.2 °F 15.8 °F 1021.6 in Calm   1.6 mph 76 % 0.0 in
09:02 20.4 °F 15.4 °F 1021.6 in Calm   1.6 mph 73 % 0.0 in
09:07 20.3 °F 15.7 °F 1021.6 in Calm   1.6 mph 75 % 0.0 in
09:12 20.3 °F 15.3 °F 1021.6 in Calm   1.6 mph 73 % 0.0 in
09:22 19.9 °F 15.3 °F 1021.6 in ENE 3.2 mph 3.2 mph 75 % 0.0 in
09:27 20.0 °F 15.8 °F 1021.6 in Calm   4.8 mph 77 % 0.0 in
09:32 20.6 °F 16.0 °F 1021.6 in East 1.6 mph 4.8 mph 75 % 0.0 in
09:37 20.9 °F 15.9 °F 1021.6 in East 1.6 mph 3.2 mph 73 % 0.0 in
09:42 21.0 °F 15.8 °F 1021.6 in East 1.6 mph 3.2 mph 72 % 0.0 in
09:47 20.4 °F 15.6 °F 1021.6 in Calm   6.4 mph 74 % 0.0 in
09:52 20.5 °F 15.9 °F 1021.6 in Calm   6.4 mph 75 % 0.0 in
09:57 20.9 °F 16.3 °F 1021.6 in Calm   6.4 mph 75 % 0.0 in
10:02 20.9 °F 16.1 °F 1021.6 in ENE 3.2 mph 6.4 mph 74 % 0.0 in
10:07 20.7 °F 16.1 °F 1021.6 in ENE 3.2 mph 6.4 mph 75 % 0.0 in
10:12 20.7 °F 16.1 °F 1021.6 in East 1.6 mph 6.4 mph 75 % 0.0 in
10:17 20.9 °F 16.3 °F 1021.6 in SE 3.2 mph 6.4 mph 75 % 0.0 in
10:22 21.2 °F 15.9 °F 1021.6 in Calm   6.4 mph 72 % 0.0 in
10:32 21.6 °F 16.3 °F 1021.6 in East 3.2 mph 6.4 mph 72 % 0.0 in
10:37 21.6 °F 16.6 °F 1021.6 in East 1.6 mph 6.4 mph 73 % 0.0 in
10:42 21.8 °F 16.3 °F 1021.6 in Calm   6.4 mph 71 % 0.0 in
10:47 22.0 °F 16.3 °F 1021.6 in ENE 1.6 mph 4.8 mph 70 % 0.0 in
10:57 22.6 °F 16.8 °F 1021.6 in Calm   6.4 mph 70 % 0.0 in
11:02 22.6 °F 16.4 °F 1021.6 in Calm   6.4 mph 68 % 0.0 in
11:12 23.0 °F 17.0 °F 1021.6 in SW 4.8 mph 6.4 mph 69 % 0.0 in
11:17 22.9 °F 16.7 °F 1021.6 in SSE 1.6 mph 6.4 mph 68 % 0.0 in
11:22 23.2 °F 17.2 °F 1021.6 in East 3.2 mph 6.4 mph 69 % 0.0 in
11:32 23.3 °F 17.1 °F 1021.6 in NE 1.6 mph 8.0 mph 68 % 0.0 in
11:37 23.2 °F 16.3 °F 1021.6 in ENE 4.8 mph 8.0 mph 65 % 0.0 in
11:42 22.7 °F 16.0 °F 1021.6 in NE 3.2 mph 8.0 mph 66 % 0.0 in
11:47 22.6 °F 15.9 °F 1021.6 in ENE 1.6 mph 9.7 mph 66 % 0.0 in
11:52 22.6 °F 16.2 °F 1021.6 in ENE 1.6 mph 9.7 mph 67 % 0.0 in
11:57 22.6 °F 16.4 °F 1021.6 in NE 6.4 mph 9.7 mph 68 % 0.0 in
12:02 22.6 °F 16.4 °F 1021.6 in East 8.0 mph 9.7 mph 68 % 0.0 in
12:07 22.6 °F 16.4 °F 1021.6 in ENE 3.2 mph 9.7 mph 68 % 0.0 in
12:12 22.5 °F 16.3 °F 1021.6 in ENE 1.6 mph 9.7 mph 68 % 0.0 in
12:17 22.4 °F 14.8 °F 1021.6 in NE 11.3 mph 11.3 mph 62 % 0.0 in
12:22 22.4 °F 15.3 °F 1021.6 in East 6.4 mph 11.3 mph 64 % 0.0 in
12:27 22.6 °F 15.7 °F 1021.6 in NNW 4.8 mph 14.5 mph 65 % 0.0 in
12:32 22.6 °F 15.9 °F 1021.6 in East 4.8 mph 14.5 mph 66 % 0.0 in
12:37 22.9 °F 16.4 °F 1021.6 in ENE 6.4 mph 14.5 mph 67 % 0.0 in
12:42 23.2 °F 16.3 °F 1021.6 in NE 4.8 mph 11.3 mph 65 % 0.0 in
12:47 23.2 °F 16.3 °F 1021.6 in ENE 4.8 mph 12.9 mph 65 % 0.0 in
12:52 23.3 °F 16.3 °F 1021.6 in ENE 6.4 mph 12.9 mph 65 % 0.0 in
13:02 23.5 °F 16.0 °F 1021.2 in ENE 4.8 mph 16.1 mph 63 % 0.0 in
13:07 23.6 °F 15.6 °F 1021.2 in ENE 3.2 mph 16.1 mph 61 % 0.0 in
13:12 23.9 °F 16.7 °F 1021.2 in East 6.4 mph 16.1 mph 64 % 0.0 in
13:17 23.9 °F 16.2 °F 1021.2 in NE 4.8 mph 14.5 mph 62 % 0.0 in
13:22 23.9 °F 16.4 °F 1021.2 in East 6.4 mph 16.1 mph 63 % 0.0 in
13:27 24.2 °F 16.5 °F 1021.2 in ENE 4.8 mph 16.1 mph 62 % 0.0 in
13:32 24.1 °F 15.8 °F 1021.2 in East 11.3 mph 12.9 mph 60 % 0.0 in
13:42 23.9 °F 15.7 °F 1020.9 in East 8.0 mph 16.1 mph 60 % 0.0 in
13:47 24.2 °F 17.0 °F 1020.9 in East 11.3 mph 16.1 mph 64 % 0.0 in
13:52 24.4 °F 16.1 °F 1020.9 in East 3.2 mph 14.5 mph 60 % 0.0 in
14:02 24.6 °F 16.3 °F 1020.9 in Calm   14.5 mph 60 % 0.0 in
14:12 25.3 °F 16.7 °F 1020.9 in ESE 6.4 mph 6.4 mph 59 % 0.0 in
14:17 25.6 °F 17.3 °F 1020.5 in ENE 1.6 mph 8.0 mph 60 % 0.0 in
14:22 25.6 °F 16.7 °F 1020.5 in Calm   8.0 mph 58 % 0.0 in
14:27 25.3 °F 16.7 °F 1020.5 in East 3.2 mph 8.0 mph 59 % 0.0 in
14:32 25.1 °F 17.0 °F 1020.5 in ENE 9.7 mph 12.9 mph 61 % 0.0 in
14:37 24.7 °F 16.7 °F 1020.5 in NNE 4.8 mph 12.9 mph 61 % 0.0 in
14:47 24.8 °F 17.3 °F 1020.5 in ENE 8.0 mph 12.9 mph 63 % 0.0 in
14:52 24.8 °F 16.8 °F 1020.5 in NE 4.8 mph 12.9 mph 61 % 0.0 in
14:57 25.1 °F 17.3 °F 1020.5 in SW 6.4 mph 12.9 mph 62 % 0.0 in
15:07 26.0 °F 17.1 °F 1020.2 in ESE 1.6 mph 11.3 mph 58 % 0.0 in
15:12 26.1 °F 16.9 °F 1020.2 in SSW 3.2 mph 9.7 mph 57 % 0.0 in
15:17 25.8 °F 17.2 °F 1020.2 in East 6.4 mph 11.3 mph 59 % 0.0 in
15:22 26.1 °F 16.9 °F 1020.2 in NNE 4.8 mph 11.3 mph 57 % 0.0 in
15:27 26.0 °F 17.9 °F 1020.2 in SE 3.2 mph 9.7 mph 61 % 0.0 in
15:32 26.4 °F 17.5 °F 1020.2 in East 3.2 mph 9.7 mph 58 % 0.0 in
15:37 26.3 °F 16.8 °F 1019.9 in ENE 4.8 mph 9.7 mph 56 % 0.0 in
15:42 26.4 °F 17.2 °F 1019.9 in SSW 1.6 mph 9.7 mph 57 % 0.0 in
15:47 26.2 °F 16.7 °F 1019.9 in SSW 3.2 mph 8.0 mph 56 % 0.0 in
15:52 26.2 °F 17.3 °F 1019.9 in SE 1.6 mph 6.4 mph 58 % 0.0 in
15:57 26.1 °F 16.6 °F 1019.9 in Calm   6.4 mph 56 % 0.0 in
16:02 26.4 °F 16.3 °F 1019.9 in East 4.8 mph 6.4 mph 54 % 0.0 in
16:12 26.0 °F 16.3 °F 1019.5 in East 4.8 mph 8.0 mph 55 % 0.0 in
16:17 26.3 °F 16.0 °F 1019.5 in SE 6.4 mph 8.0 mph 53 % 0.0 in
16:22 26.8 °F 16.1 °F 1019.5 in SW 8.0 mph 8.0 mph 52 % 0.0 in
16:27 26.6 °F 15.6 °F 1019.5 in Calm   8.0 mph 51 % 0.0 in
16:32 26.6 °F 15.9 °F 1019.5 in West 3.2 mph 8.0 mph 52 % 0.0 in
16:42 26.5 °F 15.8 °F 1019.5 in SSW 6.4 mph 11.3 mph 52 % 0.0 in
16:47 26.1 °F 15.8 °F 1019.5 in SE 1.6 mph 11.3 mph 53 % 0.0 in
16:52 25.8 °F 16.4 °F 1019.5 in SW 3.2 mph 11.3 mph 56 % 0.0 in
16:57 25.9 °F 16.2 °F 1019.2 in SSW 3.2 mph 8.0 mph 55 % 0.0 in
17:02 26.2 °F 17.0 °F 1019.2 in West 4.8 mph 6.4 mph 57 % 0.0 in
17:07 26.2 °F 16.4 °F 1019.2 in Calm   8.0 mph 55 % 0.0 in
17:12 26.1 °F 16.4 °F 1019.2 in WNW 1.6 mph 8.0 mph 55 % 0.0 in
17:22 26.7 °F 16.9 °F 1019.2 in Calm   8.0 mph 55 % 0.0 in
17:32 27.3 °F 16.6 °F 1019.2 in Calm   11.3 mph 52 % 0.0 in
17:37 27.4 °F 16.7 °F 1018.8 in East 3.2 mph 11.3 mph 52 % 0.0 in
17:47 26.8 °F 16.4 °F 1018.8 in SSW 1.6 mph 8.0 mph 53 % 0.0 in
17:52 27.1 °F 15.5 °F 1018.8 in SW 3.2 mph 9.7 mph 49 % 0.0 in
17:57 27.3 °F 16.3 °F 1018.8 in WSW 4.8 mph 9.7 mph 51 % 0.0 in
18:02 27.4 °F 15.7 °F 1018.8 in South 3.2 mph 6.4 mph 49 % 0.0 in
18:07 27.6 °F 16.2 °F 1018.8 in Calm   9.7 mph 50 % 0.0 in
18:12 27.6 °F 15.9 °F 1018.8 in Calm   9.7 mph 49 % 0.0 in
18:22 27.0 °F 16.3 °F 1018.8 in Calm   4.8 mph 52 % 0.0 in
18:32 27.4 °F 16.1 °F 1018.5 in Calm   6.4 mph 50 % 0.0 in
18:42 27.1 °F 16.7 °F 1018.5 in East 4.8 mph 6.4 mph 53 % 0.0 in
18:47 26.8 °F 17.3 °F 1018.5 in Calm   8.0 mph 56 % 0.0 in
18:52 27.1 °F 16.4 °F 1018.5 in SSE 3.2 mph 8.0 mph 52 % 0.0 in
18:57 26.9 °F 16.2 °F 1018.5 in Calm   6.4 mph 52 % 0.0 in
19:02 26.5 °F 16.1 °F 1018.5 in East 1.6 mph 6.4 mph 53 % 0.0 in
19:12 26.1 °F 16.4 °F 1018.5 in ESE 1.6 mph 6.4 mph 55 % 0.0 in
19:17 26.3 °F 16.8 °F 1018.8 in Calm   4.8 mph 56 % 0.0 in
19:22 26.3 °F 16.8 °F 1018.8 in Calm   4.8 mph 56 % 0.0 in
19:32 25.6 °F 16.4 °F 1018.5 in Calm   1.6 mph 57 % 0.0 in
19:42 25.9 °F 16.4 °F 1018.5 in Calm     56 % 0.0 in
19:47 25.9 °F 16.2 °F 1018.5 in Calm     55 % 0.0 in
19:52 26.0 °F 17.1 °F 1018.5 in Calm     58 % 0.0 in
19:57 26.2 °F 17.0 °F 1018.5 in Calm     57 % 0.0 in
20:02 26.3 °F 17.1 °F 1018.5 in Calm   3.2 mph 57 % 0.0 in
20:12 26.7 °F 16.9 °F 1018.5 in Calm   3.2 mph 55 % 0.0 in
20:17 26.8 °F 16.4 °F 1018.5 in Calm     53 % 0.0 in
20:22 26.9 °F 16.5 °F 1018.5 in Calm     53 % 0.0 in
20:32 27.1 °F 16.1 °F 1018.5 in Calm   3.2 mph 51 % 0.0 in
20:42 27.2 °F 15.9 °F 1018.5 in Calm   1.6 mph 50 % 0.0 in
20:47 27.5 °F 17.4 °F 1018.5 in Calm   1.6 mph 54 % 0.0 in
20:52 27.6 °F 17.5 °F 1018.5 in Calm   1.6 mph 54 % 0.0 in
20:57 27.4 °F 17.3 °F 1018.8 in Calm     54 % 0.0 in
21:02 26.8 °F 16.7 °F 1018.8 in Calm     54 % 0.0 in
21:07 26.2 °F 17.3 °F 1018.8 in Calm     58 % 0.0 in
21:12 25.7 °F 16.8 °F 1018.8 in Calm     58 % 0.0 in
21:17 24.6 °F 16.8 °F 1018.8 in Calm     62 % 0.0 in
21:22 23.7 °F 16.2 °F 1018.8 in Calm     63 % 0.0 in
21:32 22.7 °F 16.3 °F 1018.8 in Calm     67 % 0.0 in
21:37 22.3 °F 16.1 °F 1018.8 in Calm     68 % 0.0 in
21:42 21.9 °F 16.0 °F 1018.8 in Calm     69 % 0.0 in
21:47 21.6 °F 16.1 °F 1018.8 in Calm     71 % 0.0 in
21:52 21.2 °F 15.9 °F 1018.8 in Calm     72 % 0.0 in
21:57 20.9 °F 16.1 °F 1018.8 in Calm     74 % 0.0 in
22:02 20.7 °F 16.3 °F 1018.8 in Calm     76 % 0.0 in
22:12 20.4 °F 16.0 °F 1019.2 in Calm     76 % 0.0 in
22:17 20.3 °F 16.1 °F 1019.2 in Calm     77 % 0.0 in
22:22 20.2 °F 16.0 °F 1019.2 in Calm     77 % 0.0 in
22:27 20.0 °F 15.8 °F 1019.2 in Calm     77 % 0.0 in
22:32 20.0 °F 15.8 °F 1019.2 in Calm     77 % 0.0 in
22:42 19.9 °F 15.9 °F 1019.5 in Calm     78 % 0.0 in
22:47 19.8 °F 16.1 °F 1019.5 in Calm     79 % 0.0 in
22:52 19.6 °F 16.1 °F 1019.5 in Calm     80 % 0.0 in
22:57 19.4 °F 15.9 °F 1019.5 in Calm     80 % 0.0 in
23:02 19.2 °F 15.7 °F 1019.5 in Calm     80 % 0.0 in
23:07 19.2 °F 15.7 °F 1019.5 in Calm     80 % 0.0 in
23:12 19.2 °F 15.7 °F 1019.5 in Calm     80 % 0.0 in
23:17 19.2 °F 15.7 °F 1019.2 in Calm     80 % 0.0 in
23:22 19.0 °F 15.7 °F 1019.2 in Calm     81 % 0.0 in
23:27 18.7 °F 15.6 °F 1019.2 in WNW 1.6 mph 1.6 mph 82 % 0.0 in
23:32 18.6 °F 15.5 °F 1019.2 in Calm   3.2 mph 82 % 0.0 in
23:42 18.7 °F 15.6 °F 1019.2 in North 3.2 mph 3.2 mph 82 % 0.0 in
23:47 18.7 °F 15.6 °F 1019.2 in Calm   3.2 mph 82 % 0.0 in
23:52 18.6 °F 15.5 °F 1019.2 in North 1.6 mph 3.2 mph 82 % 0.0 in
Meteo18
Compliments of Weather Underground - 4 mb

Script developed by  Jim McMurry - jmcmurry@mwt.net Adapted for the template by  Wim van der Kuil - Leuven-Template.eu

You find our weather info also at:

European Weather Network

Weather Underground

Equipment we use:

Weather-station
Davis Vue

Weather-program
Meteobridge

Weather-server
Raspberry PI 2 B+

Provider
1 and 1

Davis Vue

Meteobridge

Raspberry PI 2 B+

1 and 1